Soul City, North Carolina
Current Conditions -  °F | °C
As of 2:35 AM on Wednesday 22 Oct 2014 (Local Time) from KHNZ Reporting Station
Heavy Rain Heavy Rain  
Wind Chill: 51°   Ceiling: 3600
Heat Index: 51°   Visibility: 7mi
Dew Point: 42°   Wind: 7mph
Humidity: 72%   Direction: 310°NW
Pressure: 29.92"   Gusts: NA
Location:  36.4679°N, 78.2938°W
Report Text: KHNZ 220635Z AUTO 31006KT 7SM +RA BKN036 OVC055 11/06 A2992 RMK AO2 T01070058
Loading
Personal Weather Stations






























Interactive Weather Map New forecast layout! Learn more

10-Day Weather Forecast

Advertisements
Track Severe Weather on mobile